Flight Track Log - Related Links

Times and Time Zones

All times are in EST time to prevent confusion due to time zone crossing. See the ELJ384 flight status page for this flight to view local times or setup timezone preferences in your user account.

Time Position Orientation Groundspeed Altitude Reporting Facility
EST Latitude Longitude Course Direction KTS MPH feet Rate Location/Type
Wed 11:49:00 AM 41.7521 -90.2977 143° Southeast  Level Estimated
Wed 11:49:19 AM 42.3069 -90.6436 146° Southeast 257 296 6,600  Level Chicago Center
Wed 11:50:00 AM 41.6437 -90.2299 155° Southeast  Level Estimated
Wed 11:50:21 AM 42.2297 -90.6442 180° South 277 319 10,200  Level Chicago Center
Wed 11:51:00 AM 41.5351 -90.1623 143° Southeast  Level Estimated
Wed 11:51:23 AM 42.1439 -90.6353 176° South 310 357 14,200  Level Chicago Center
Wed 11:52:00 AM 41.4266 -90.0949 157° South  Level Estimated
Wed 11:52:25 AM 42.0564 -90.5722 152° Southeast 355 409 17,800  Level Chicago Center
Wed 11:53:00 AM 41.3329 -89.9956 141° Southeast  Level FlightAware Approximate
Wed 11:53:27 AM 41.9636 -90.5036 151° Southeast 383 441 20,200  Level Chicago Center
Wed 11:54:28 AM 41.8647 -90.4328 152° Southeast 402 463 23,700 3,220 Climbing Chicago Center
Wed 11:55:30 AM 41.7553 -90.3550 152° Southeast 418 481 26,800 3,048 Climbing Chicago Center
Wed 11:56:32 AM 41.6261 -90.2614 152° Southeast 440 506 30,000 3,145 Climbing Chicago Center
Wed 11:57:34 AM 41.5150 -90.1806 151° Southeast 451 519 33,300 2,419 Climbing Chicago Center
Wed 11:58:36 AM 41.4064 -90.1031 152° Southeast 445 512 35,000 823 Climbing Chicago Center
Wed 11:59:38 AM 41.2906 -90.0197 152° Southeast 467 537 35,000 823 Level Chicago Center
Wed 12:00:40 PM 41.1758 -89.9378 152° Southeast 467 537 36,700 2,226 Climbing Chicago Center
Wed 12:01:42 PM 41.0656 -89.8592 152° Southeast 455 524 39,600 2,081 Climbing Chicago Center
Wed 12:02:44 PM 40.9581 -89.7833 152° Southeast 440 506 41,000 677 Climbing Chicago Center
Wed 12:03:46 PM 40.8261 -89.6908 152° Southeast 447 514 41,000  Level Chicago Center
Wed 12:04:48 PM 40.7153 -89.6144 152° Southeast 451 519 41,000  Level Chicago Center
Wed 12:05:50 PM 40.5969 -89.5319 152° Southeast 447 514 41,000  Level Chicago Center
Wed 12:06:52 PM 40.4858 -89.4550 152° Southeast 450 518 41,000  Level Chicago Center
Wed 12:07:54 PM 40.3753 -89.3794 152° Southeast 447 514 41,000  Level Chicago Center
Wed 12:08:56 PM 40.2639 -89.3028 152° Southeast 450 518 41,000  Level Chicago Center
Wed 12:09:58 PM 40.1514 -89.2258 152° Southeast 454 522 41,000  Level Chicago Center
Wed 12:10:52 PM 40.0381 -89.1489 153° Southeast 456 525 41,000  Level Kansas City Center
Wed 12:11:54 PM 39.9250 -89.0717 152° Southeast 459 528 41,000  Level Kansas City Center
Wed 12:12:56 PM 39.8106 -88.9950 153° Southeast 460 529 41,000  Level Kansas City Center
Wed 12:13:58 PM 39.6964 -88.9186 153° Southeast 461 531 41,000  Level Kansas City Center
Wed 12:15:00 PM 39.5819 -88.8417 153° Southeast 462 532 41,000  Level Kansas City Center
Wed 12:16:02 PM 39.4675 -88.7656 153° Southeast 463 533 41,000  Level Kansas City Center
Wed 12:17:04 PM 39.3439 -88.6822 152° Southeast 460 529 41,000  Level Kansas City Center
Wed 12:18:06 PM 39.2228 -88.6011 153° Southeast 458 527 41,000  Level Kansas City Center
Wed 12:19:08 PM 39.1078 -88.5253 153° Southeast 460 529 41,000  Level Kansas City Center
Wed 12:20:10 PM 38.9944 -88.4508 153° Southeast 459 528 41,000  Level Kansas City Center
Wed 12:21:12 PM 38.8814 -88.3756 153° Southeast 458 527 41,000  Level Kansas City Center
Wed 12:22:14 PM 38.7431 -88.2850 153° Southeast 461 531 41,000  Level Kansas City Center
Wed 12:23:17 PM 38.6281 -88.2094 153° Southeast 463 533 41,000  Level Kansas City Center
Wed 12:24:19 PM 38.5114 -88.1356 154° Southeast 466 536 41,000  Level Kansas City Center
Wed 12:25:21 PM 38.3953 -88.0611 153° Southeast 467 537 41,000  Level Kansas City Center
Wed 12:26:23 PM 38.2783 -87.9864 153° Southeast 468 539 41,000  Level Kansas City Center
Wed 12:27:25 PM 38.1622 -87.9128 154° Southeast 468 539 41,000  Level Kansas City Center
Wed 12:28:31 PM 38.0258 -87.8258 153° Southeast 463 533 41,000  Level Indianapolis Center
Wed 12:29:33 PM 37.9094 -87.7522 153° Southeast 467 537 41,000  Level Indianapolis Center
Wed 12:30:35 PM 37.7931 -87.6806 154° Southeast 465 535 41,000  Level Indianapolis Center
Wed 12:31:37 PM 37.6725 -87.6078 154° Southeast 462 532 41,000  Level Indianapolis Center
Wed 12:32:38 PM 37.5553 -87.5356 154° Southeast 463 533 41,000  Level Indianapolis Center
Wed 12:33:40 PM 37.4372 -87.4642 154° Southeast 465 535 41,000  Level Indianapolis Center
Wed 12:34:42 PM 37.2997 -87.3797 154° Southeast 467 537 41,000  Level Indianapolis Center
Wed 12:35:44 PM 37.1814 -87.3081 154° Southeast 468 539 41,000  Level Indianapolis Center
Wed 12:36:25 PM 37.1022 -87.2597 154° Southeast 467 537 41,000  Level Memphis Center
Wed 12:37:27 PM 36.9842 -87.1878 154° Southeast 467 537 41,000  Level Memphis Center
Wed 12:38:29 PM 36.8664 -87.1169 154° Southeast 466 536 41,000  Level Memphis Center
Wed 12:39:31 PM 36.7483 -87.0469 155° Southeast 465 535 41,000  Level Memphis Center
Wed 12:40:33 PM 36.6306 -86.9764 154° Southeast 465 535 41,000  Level Memphis Center
Wed 12:41:35 PM 36.5119 -86.9056 154° Southeast 466 536 41,000  Level Memphis Center
Wed 12:42:37 PM 36.3883 -86.8325 155° Southeast 465 535 41,000  Level Memphis Center
Wed 12:43:39 PM 36.2683 -86.7636 155° Southeast 468 539 41,000  Level Memphis Center
Wed 12:44:41 PM 36.1389 -86.6881 155° Southeast 486 559 41,000  Level Memphis Center
Wed 12:45:43 PM 35.9933 -86.6158 158° South 477 549 41,000  Level Memphis Center
Wed 12:46:46 PM 35.8689 -86.5547 158° South 477 549 41,000  Level Memphis Center
Wed 12:47:48 PM 35.7456 -86.4931 158° South 475 547 41,000  Level Memphis Center
Wed 12:48:50 PM 35.6222 -86.4319 158° South 473 544 41,000  Level Memphis Center
Wed 12:49:52 PM 35.4992 -86.3708 158° South 473 544 41,000  Level Memphis Center
Wed 12:50:54 PM 35.3750 -86.3097 158° South 474 545 41,000  Level Memphis Center
Wed 12:51:56 PM 35.2519 -86.2486 158° South 474 545 41,000  Level Memphis Center
Wed 12:52:58 PM 35.1178 -86.1836 158° South 474 545 41,000  Level Memphis Center
Wed 12:54:00 PM 34.9964 -86.1247 158° South 472 543 41,000  Level Memphis Center
Wed 12:55:02 PM 34.8736 -86.0661 159° South 472 543 41,000  Level Memphis Center
Wed 12:56:04 PM 34.7392 -86.0006 158° South 477 549 41,000  Level Memphis Center
Wed 12:57:06 PM 34.6133 -85.9406 159° South 480 552 41,000  Level Memphis Center
Wed 12:58:08 PM 34.4886 -85.8803 158° South 482 555 41,000  Level Memphis Center
Wed 12:59:10 PM 34.3642 -85.8219 159° South 481 554 41,000  Level Memphis Center
Wed 01:00:21 PM 34.2103 -85.7519 159° South 484 557 41,000  Level Atlanta Center
Wed 01:01:21 PM 34.0878 -85.6917 158° South 484 557 41,000  Level Atlanta Center
Wed 01:02:21 PM 33.9656 -85.6367 160° South 479 551 41,000  Level Atlanta Center
Wed 01:03:21 PM 33.8453 -85.5794 158° South 468 539 41,000  Level Atlanta Center
Wed 01:04:21 PM 33.7228 -85.5200 158° South 468 539 41,000  Level Atlanta Center
Wed 01:05:21 PM 33.5981 -85.4653 160° South 468 539 41,000  Level Atlanta Center
Wed 01:06:21 PM 33.4756 -85.4086 159° South 468 539 41,000  Level Atlanta Center
Wed 01:07:21 PM 33.3511 -85.3544 160° South 473 544 41,000  Level Atlanta Center
Wed 01:08:21 PM 33.2181 -85.2903 158° South 468 539 41,000  Level Atlanta Center
Wed 01:09:21 PM 33.0914 -85.2339 160° South 468 539 41,000  Level Atlanta Center
Wed 01:10:21 PM 32.9708 -85.1853 161° South 468 539 41,000  Level Atlanta Center
Wed 01:12:21 PM 32.7356 -85.0983 163° South 462 532 41,000  Level Atlanta Center
Wed 01:13:21 PM 32.6086 -85.0475 161° South 462 532 41,000  Level Atlanta Center
Wed 01:14:21 PM 32.4861 -84.9919 159° South 468 539 41,000  Level Atlanta Center
Wed 01:16:34 PM 32.2053 -84.8739 160° South 468 539 41,000  Level Jacksonville Center
Wed 01:17:34 PM 32.0872 -84.8225 160° South 462 532 41,000  Level Jacksonville Center
Wed 01:18:34 PM 31.9647 -84.7733 161° South 462 532 41,000  Level Jacksonville Center
Wed 01:19:34 PM 31.8422 -84.7219 160° South 462 532 41,000  Level Jacksonville Center
Wed 01:20:34 PM 31.7197 -84.6706 160° South 462 532 41,000  Level Jacksonville Center
Wed 01:21:34 PM 31.5972 -84.6194 160° South 462 532 41,000  Level Jacksonville Center
Wed 01:22:34 PM 31.4769 -84.5686 160° South 462 532 41,000  Level Jacksonville Center
Wed 01:23:34 PM 31.3544 -84.5200 161° South 462 532 41,000  Level Jacksonville Center
Wed 01:24:34 PM 31.2361 -84.4694 160° South 454 522 41,000  Level Jacksonville Center
Wed 01:25:34 PM 31.1156 -84.4214 161° South 460 529 41,000  Level Jacksonville Center
Wed 01:26:34 PM 30.9969 -84.3708 160° South 460 529 41,000  Level Jacksonville Center
Wed 01:27:34 PM 30.8789 -84.3086 156° South 460 529 41,000  Level Jacksonville Center
Wed 01:28:34 PM 30.7625 -84.2464 155° Southeast 465 535 41,000  Level Jacksonville Center
Wed 01:29:34 PM 30.6461 -84.1867 156° South 465 535 41,000  Level Jacksonville Center
Wed 01:30:34 PM 30.5319 -84.1275 156° South 453 521 41,000  Level Jacksonville Center
Wed 01:31:34 PM 30.4178 -84.0681 156° South 447 514 41,000  Level Jacksonville Center
Wed 01:32:34 PM 30.3033 -84.0089 156° South 452 520 41,000  Level Jacksonville Center
Wed 01:33:34 PM 30.1869 -83.9500 156° South 457 526 41,000  Level Jacksonville Center
Wed 01:34:34 PM 30.0706 -83.8886 155° Southeast 457 526 41,000  Level Jacksonville Center
Wed 01:35:34 PM 29.9519 -83.8322 158° South 457 526 41,000  Level Jacksonville Center
Wed 01:36:34 PM 29.8356 -83.7714 156° South 457 526 41,000  Level Jacksonville Center
Wed 01:37:34 PM 29.7211 -83.7106 155° Southeast 457 526 41,000  Level Jacksonville Center
Wed 01:38:34 PM 29.6169 -83.6594 157° South 457 526 41,000  Level Jacksonville Center
Wed 01:39:34 PM 29.5025 -83.6036 157° South 457 526 41,000  Level Jacksonville Center
Wed 01:40:34 PM 29.3858 -83.5433 156° South 457 526 41,000  Level Jacksonville Center
Wed 01:41:34 PM 29.2714 -83.4831 155° Southeast 457 526 41,000  Level Jacksonville Center
Wed 01:42:34 PM 29.1547 -83.4253 157° South 457 526 41,000  Level Jacksonville Center
Wed 01:43:34 PM 29.0381 -83.3700 157° South 457 526 41,000  Level Jacksonville Center
Wed 01:44:34 PM 28.9194 -83.3100 156° South 457 526 41,000  Level Jacksonville Center
Wed 01:45:34 PM 28.8025 -83.2503 156° South 457 526 41,000  Level Jacksonville Center
Wed 01:46:34 PM 28.6900 -83.1956 157° South 457 526 41,000  Level Jacksonville Center
Wed 01:48:39 PM 28.4372 -83.0714 157° South 451 519 41,000  Level Miami Center
Wed 01:49:39 PM 28.3231 -83.0156 157° South 451 519 41,000  Level Miami Center
Wed 01:50:39 PM 28.2086 -82.9575 156° South 451 519 41,000  Level Miami Center
Wed 01:51:39 PM 28.0983 -82.9044 157° South 446 513 41,000  Level Miami Center
Wed 01:52:39 PM 27.9878 -82.8517 157° South 460 529 41,000  Level Miami Center
Wed 01:53:39 PM 27.8797 -82.7942 155° Southeast 460 529 41,000  Level Miami Center
Wed 01:54:39 PM 27.7650 -82.7392 157° South 450 518 41,000  Level Miami Center
Wed 01:55:39 PM 27.6406 -82.6694 154° Southeast 449 517 41,000  Level Miami Center
Wed 01:56:39 PM 27.5303 -82.6100 154° Southeast 449 517 41,000  Level Miami Center
Wed 01:57:39 PM 27.4181 -82.5483 154° Southeast 456 525 41,000  Level Miami Center
Wed 01:58:39 PM 27.3200 -82.4944 154° Southeast 449 517 41,000  Level Miami Center
Wed 01:59:39 PM 27.2056 -82.4306 154° Southeast 458 527 41,000  Level Miami Center
Wed 02:00:39 PM 27.0911 -82.3689 154° Southeast 453 521 41,000  Level Miami Center
Wed 02:01:39 PM 26.9808 -82.3103 155° Southeast 453 521 41,000 -600 Level Miami Center
Wed 02:02:39 PM 26.8683 -82.2467 153° Southeast 453 521 39,800 -1,550 Descending Miami Center
Wed 02:03:39 PM 26.7536 -82.1881 155° Southeast 453 521 37,900 -1,900 Descending Miami Center
Wed 02:04:39 PM 26.6431 -82.1297 155° Southeast 453 521 36,000 -1,850 Descending Miami Center
Wed 02:05:39 PM 26.5303 -82.0689 154° Southeast 453 521 34,200 -1,750 Descending Miami Center
Wed 02:06:39 PM 26.4158 -82.0058 154° Southeast 458 527 32,500 -1,750 Descending Miami Center
Wed 02:07:39 PM 26.2969 -81.9381 153° Southeast 458 527 30,700 -2,000 Descending Miami Center
Wed 02:08:39 PM 26.1697 -81.8725 155° Southeast 458 527 28,500 -2,200 Descending Miami Center
Wed 02:09:39 PM 26.0447 -81.8050 154° Southeast 472 543 26,300 -2,150 Descending Miami Center
Wed 02:10:39 PM 25.9236 -81.7422 155° Southeast 479 551 24,200 -1,400 Descending Miami Center
Wed 02:11:39 PM 25.8089 -81.6797 154° Southeast 479 551 23,500 -1,450 Descending Miami Center
Wed 02:12:39 PM 25.6917 -81.6197 155° Southeast 474 545 21,300 -2,150 Descending Miami Center
Wed 02:13:39 PM 25.5789 -81.5578 154° Southeast 463 533 19,200 -2,050 Descending Miami Center
Wed 02:14:39 PM 25.4736 -81.5217 163° South 445 512 17,200 -2,050 Descending Miami Center
Wed 02:15:39 PM 25.3578 -81.5469 191° South 396 456 15,100 -1,950 Descending Miami Center
Wed 02:16:39 PM 25.2525 -81.5797 196° South 401 461 13,300 -1,800 Descending Miami Center
Wed 02:17:39 PM 25.1492 -81.6078 194° South 394 453 11,500 -1,700 Descending Miami Center
Wed 02:18:39 PM 25.0647 -81.6411 200° South 380 437 9,900 -1,700 Descending Miami Center
Wed 02:19:39 PM 24.9753 -81.6950 209° Southwest 369 425 8,100 -1,750 Descending Miami Center
Wed 02:20:39 PM 24.9006 -81.7425 210° Southwest 348 400 6,400 -1,900 Descending Miami Center
Wed 02:21:39 PM 24.8364 -81.7856 211° Southwest 309 356 4,300 -1,850 Descending Miami Center
Wed 02:22:39 PM 24.7703 -81.8286 211° Southwest 288 331 2,700 -1,400 Descending Miami Center
Wed 02:23:39 PM 24.7000 -81.8692 208° Southwest 283 326 1,500 -550 Descending Miami Center
Wed 02:24:39 PM 24.6328 -81.8803 189° South 270 311 1,600  Climbing Miami Center
Wed 02:25:39 PM 24.5722 -81.8825 182° South 237 273 1,500 -200 Descending Miami Center
Wed 02:26:39 PM 24.5506 -81.8381 118° Southeast 182 209 1,200 -300 Descending Miami Center
Wed 02:28:00 PM 24.5561 -81.7596 122° Southeast  Level Estimated
Wed 02:35:00 PM 24.5561 -81.7596 122° Southeast  Level Estimated
Wed 02:36:00 PM 24.5561 -81.7596 122° Southeast  Level Estimated

Login

Don't have an account? Register now (free) for customized features, flight alerts, and more!